createdAt,value
2022-11-05T00:02:20.696Z,28.63
2022-11-05T00:04:41.202Z,32.55
2022-11-05T00:07:01.922Z,33.03
2022-11-05T00:09:22.343Z,34.78
2022-11-05T00:11:44.591Z,50.53
2022-11-05T00:14:04.890Z,28.70
2022-11-05T00:16:25.255Z,31.30
2022-11-05T00:18:27.583Z,33.70
2022-11-05T00:20:29.445Z,32.33
2022-11-05T00:22:50.812Z,32.60
2022-11-05T00:25:11.742Z,34.15
2022-11-05T00:27:13.611Z,30.40
2022-11-05T00:29:15.624Z,33.38
2022-11-05T00:31:17.808Z,35.03
2022-11-05T00:33:20.137Z,36.53
2022-11-05T00:35:22.686Z,37.57
2022-11-05T00:39:26.700Z,29.88
2022-11-05T00:41:28.582Z,32.65
2022-11-05T00:43:49.470Z,31.63
2022-11-05T00:45:51.359Z,33.13
2022-11-05T00:48:11.607Z,35.97
2022-11-05T00:50:14.168Z,30.48
2022-11-05T00:52:34.938Z,35.45
2022-11-05T00:54:36.973Z,32.30
2022-11-05T00:56:39.174Z,33.38
2022-11-05T00:58:41.033Z,31.23
2022-11-05T01:00:50.538Z,33.83
2022-11-05T01:02:53.023Z,32.17
2022-11-05T01:04:54.955Z,32.72
2022-11-05T01:06:56.791Z,38.28
2022-11-05T01:08:58.956Z,33.03
2022-11-05T01:11:07.435Z,35.05
2022-11-05T01:13:13.016Z,32.65
2022-11-05T01:15:16.812Z,36.92
2022-11-05T01:17:18.625Z,35.05
2022-11-05T01:19:20.577Z,31.20
2022-11-05T01:21:22.853Z,28.58
2022-11-05T01:23:24.881Z,32.45
2022-11-05T01:25:27.144Z,32.50
2022-11-05T01:27:29.323Z,31.90
2022-11-05T01:29:31.187Z,31.52
2022-11-05T01:31:33.039Z,29.70
2022-11-05T01:33:35.304Z,31.85
2022-11-05T01:35:39.184Z,33.15
2022-11-05T01:37:41.100Z,34.97
2022-11-05T01:39:43.318Z,31.42
2022-11-05T01:41:45.171Z,34.00
2022-11-05T01:44:01.655Z,35.17
2022-11-05T01:46:03.866Z,32.72
2022-11-05T01:48:15.377Z,33.05
2022-11-05T01:50:23.280Z,33.45
2022-11-05T01:52:27.941Z,29.20
2022-11-05T01:54:33.419Z,33.72
2022-11-05T01:56:43.616Z,33.38
2022-11-05T01:59:02.733Z,32.95
2022-11-05T02:01:04.640Z,37.33
2022-11-05T02:03:07.219Z,34.10
2022-11-05T02:07:12.917Z,35.17
2022-11-05T02:09:26.165Z,27.30
2022-11-05T02:11:29.032Z,33.45
2022-11-05T02:13:30.941Z,32.30
2022-11-05T02:16:02.178Z,38.28
2022-11-05T02:18:18.958Z,34.90
2022-11-05T02:20:32.684Z,39.42
2022-11-05T02:23:24.491Z,38.22
2022-11-05T02:26:11.978Z,33.67
2022-11-05T02:28:19.916Z,34.70
2022-11-05T02:30:43.122Z,36.25
2022-11-05T02:32:52.543Z,36.53
2022-11-05T02:35:19.291Z,35.28
2022-11-05T02:37:23.882Z,31.70
2022-11-05T02:39:28.857Z,36.45
2022-11-05T02:41:39.991Z,34.13
2022-11-05T02:44:17.448Z,33.55
2022-11-05T02:46:31.626Z,32.92
2022-11-05T02:48:45.326Z,35.70
2022-11-05T02:50:59.335Z,35.45
2022-11-05T02:53:12.146Z,44.22
2022-11-05T02:55:29.704Z,37.28
2022-11-05T02:57:36.358Z,36.15
2022-11-05T02:59:38.610Z,33.95
2022-11-05T03:01:43.961Z,34.25
2022-11-05T03:03:48.944Z,34.47
2022-11-05T03:06:28.217Z,37.80
2022-11-05T03:08:51.526Z,34.05
2022-11-05T03:13:20.728Z,37.65
2022-11-05T03:15:40.824Z,36.70
2022-11-05T03:18:00.008Z,40.42
2022-11-05T03:20:12.790Z,37.33
2022-11-05T03:22:21.809Z,35.35
2022-11-05T03:24:29.429Z,37.65
2022-11-05T03:26:36.119Z,38.13
2022-11-05T03:28:43.133Z,36.70
2022-11-05T03:30:46.549Z,35.10
2022-11-05T03:32:57.339Z,37.08
2022-11-05T03:35:04.110Z,35.03
2022-11-05T03:37:07.867Z,34.72
2022-11-05T03:39:17.314Z,41.33
2022-11-05T03:41:22.000Z,34.67
2022-11-05T03:43:29.675Z,37.67
2022-11-05T03:45:37.457Z,32.83
2022-11-05T03:47:43.171Z,36.08
2022-11-05T03:50:02.611Z,42.85
2022-11-05T03:52:09.191Z,36.20
2022-11-05T03:54:11.186Z,38.90
2022-11-05T03:56:21.998Z,39.85
2022-11-05T03:58:24.805Z,42.38
2022-11-05T04:00:26.815Z,38.65
2022-11-05T04:02:29.264Z,39.33
2022-11-05T04:04:31.184Z,39.20
2022-11-05T04:06:51.299Z,40.92
2022-11-05T04:09:12.186Z,39.42
2022-11-05T04:11:32.241Z,46.22
2022-11-05T04:13:34.193Z,35.88
2022-11-05T04:15:56.474Z,42.10
2022-11-05T04:17:59.109Z,39.72
2022-11-05T04:20:19.734Z,38.50
2022-11-05T04:22:42.367Z,42.83
2022-11-05T04:24:44.237Z,36.42
2022-11-05T04:26:46.105Z,40.75
2022-11-05T04:29:07.990Z,39.65
2022-11-05T04:31:09.921Z,44.05
2022-11-05T04:33:14.793Z,42.30
2022-11-05T04:35:17.237Z,46.33
2022-11-05T04:37:19.170Z,41.60
2022-11-05T04:39:21.550Z,39.88
2022-11-05T04:41:23.930Z,48.88
2022-11-05T04:43:25.750Z,37.17
2022-11-05T04:45:30.035Z,41.67
2022-11-05T04:47:32.186Z,39.83
2022-11-05T04:49:34.013Z,41.72
2022-11-05T04:51:35.887Z,37.15
2022-11-05T04:53:38.154Z,40.13
2022-11-05T04:55:40.009Z,36.83
2022-11-05T04:57:41.915Z,38.60
2022-11-05T04:59:44.128Z,34.38
2022-11-05T05:01:46.008Z,41.33
2022-11-05T05:03:49.643Z,39.53
2022-11-05T05:05:53.795Z,45.33
2022-11-05T05:08:00.830Z,39.88
2022-11-05T05:10:04.605Z,44.97
2022-11-05T05:12:08.069Z,42.33
2022-11-05T05:14:10.031Z,41.92
2022-11-05T05:16:20.266Z,45.45
2022-11-05T05:18:22.639Z,44.38
2022-11-05T05:20:43.273Z,42.47
2022-11-05T05:22:52.050Z,47.53
2022-11-05T05:24:55.685Z,57.65
2022-11-05T05:26:57.641Z,45.13
2022-11-05T05:28:59.528Z,51.30
2022-11-05T05:31:02.165Z,49.42
2022-11-05T05:33:04.662Z,47.60
2022-11-05T05:35:07.081Z,47.00
2022-11-05T05:37:09.280Z,54.50
2022-11-05T05:39:11.352Z,43.40
2022-11-05T05:41:13.374Z,46.20
2022-11-05T05:43:15.768Z,52.33
2022-11-05T05:45:17.642Z,53.80
2022-11-05T05:47:19.571Z,55.20
2022-11-05T05:49:21.940Z,57.05
2022-11-05T05:51:23.979Z,48.55
2022-11-05T05:53:25.806Z,55.75
2022-11-05T05:55:28.002Z,52.47
2022-11-05T05:57:29.818Z,58.83
2022-11-05T05:59:31.684Z,49.40
2022-11-05T06:01:33.928Z,56.92
2022-11-05T06:03:35.899Z,54.65
2022-11-05T06:05:37.693Z,53.72
2022-11-05T06:07:40.101Z,57.35
2022-11-05T06:09:42.096Z,64.17
2022-11-05T06:11:44.184Z,58.20
2022-11-05T06:13:46.431Z,53.35
2022-11-05T06:15:48.313Z,59.85
2022-11-05T06:17:50.171Z,46.72
2022-11-05T06:19:52.955Z,59.20
2022-11-05T06:21:54.884Z,52.45
2022-11-05T06:23:56.749Z,48.65
2022-11-05T06:26:03.699Z,55.40
2022-11-05T06:28:05.540Z,57.85
2022-11-05T06:30:08.106Z,55.58
2022-11-05T06:32:10.320Z,54.75
2022-11-05T06:34:14.977Z,53.90
2022-11-05T06:36:18.743Z,56.15
2022-11-05T06:38:21.293Z,49.72
2022-11-05T06:40:23.171Z,51.90
2022-11-05T06:42:25.520Z,51.67
2022-11-05T06:44:27.867Z,47.85
2022-11-05T06:46:29.866Z,51.20
2022-11-05T06:48:31.918Z,45.38
2022-11-05T06:50:34.115Z,53.15
2022-11-05T06:52:40.915Z,51.72
2022-11-05T06:54:44.164Z,47.25
2022-11-05T06:56:46.599Z,45.35
2022-11-05T06:58:48.438Z,49.90
2022-11-05T07:00:50.339Z,48.63
2022-11-05T07:02:52.816Z,61.55
2022-11-05T07:04:54.656Z,46.67
2022-11-05T07:06:56.581Z,48.38
2022-11-05T07:08:59.404Z,54.08
2022-11-05T07:11:01.407Z,51.33
2022-11-05T07:13:07.727Z,44.78
2022-11-05T07:15:12.393Z,45.20
2022-11-05T07:17:14.212Z,50.47
2022-11-05T07:19:16.069Z,43.28
2022-11-05T07:21:19.775Z,42.42
2022-11-05T07:23:21.611Z,45.75
2022-11-05T07:25:23.411Z,45.10
2022-11-05T07:27:25.681Z,48.05
2022-11-05T07:29:27.515Z,46.15
2022-11-05T07:31:29.355Z,44.50
2022-11-05T07:33:36.307Z,49.42
2022-11-05T07:35:38.839Z,48.38
2022-11-05T07:37:45.700Z,49.83
2022-11-05T07:39:48.235Z,45.25
2022-11-05T07:41:52.455Z,43.65
2022-11-05T07:43:54.286Z,47.83
2022-11-05T07:45:56.718Z,42.05
2022-11-05T07:48:00.781Z,50.78
2022-11-05T07:50:02.651Z,47.03
2022-11-05T07:52:05.173Z,47.28
2022-11-05T07:54:07.022Z,42.72
2022-11-05T07:56:10.463Z,46.85
2022-11-05T07:58:13.606Z,49.35
2022-11-05T08:00:18.298Z,46.50
2022-11-05T08:02:20.440Z,41.58
2022-11-05T08:04:23.102Z,41.70
2022-11-05T08:06:25.155Z,50.47
2022-11-05T08:08:27.052Z,46.08
2022-11-05T08:10:29.562Z,49.33
2022-11-05T08:12:32.440Z,52.30
2022-11-05T08:14:34.352Z,48.47
2022-11-05T08:16:36.573Z,48.95
2022-11-05T08:18:38.454Z,44.88
2022-11-05T08:20:41.335Z,48.33
2022-11-05T08:22:44.593Z,47.67
2022-11-05T08:24:46.519Z,46.97
2022-11-05T08:26:48.407Z,50.88
2022-11-05T08:28:50.604Z,47.35
2022-11-05T08:30:54.998Z,42.85
2022-11-05T08:32:59.143Z,51.47
2022-11-05T08:35:01.380Z,43.85
2022-11-05T08:37:03.824Z,44.50
2022-11-05T08:39:05.867Z,45.63
2022-11-05T08:41:08.101Z,48.55
2022-11-05T08:43:12.929Z,47.08
2022-11-05T08:45:15.180Z,47.50
2022-11-05T08:47:17.486Z,47.85
2022-11-05T08:49:19.329Z,42.08
2022-11-05T08:51:21.246Z,48.47
2022-11-05T08:53:23.452Z,47.83
2022-11-05T08:55:25.942Z,52.60
2022-11-05T08:57:27.802Z,49.30
2022-11-05T08:59:31.475Z,51.55
2022-11-05T09:01:34.448Z,49.63
2022-11-05T09:03:36.565Z,51.75
2022-11-05T09:05:40.747Z,42.10
2022-11-05T09:07:42.657Z,48.55
2022-11-05T09:09:44.519Z,55.83
2022-11-05T09:12:10.437Z,54.80
2022-11-05T09:14:08.906Z,51.88
2022-11-05T09:16:25.664Z,48.03
2022-11-05T09:18:28.466Z,50.33
2022-11-05T09:20:30.407Z,48.17
2022-11-05T09:22:32.310Z,50.05
2022-11-05T09:24:34.516Z,46.28
2022-11-05T09:26:36.382Z,51.78
2022-11-05T09:28:38.325Z,50.38
2022-11-05T09:30:51.609Z,46.67
2022-11-05T09:32:54.898Z,49.63
2022-11-05T09:34:56.876Z,47.67
2022-11-05T09:36:59.270Z,50.17
2022-11-05T09:39:01.161Z,44.53
2022-11-05T09:41:05.886Z,51.05
2022-11-05T09:43:12.975Z,51.05
2022-11-05T09:45:24.899Z,57.22
2022-11-05T09:47:35.103Z,51.42
2022-11-05T09:49:42.088Z,50.28
2022-11-05T09:51:44.198Z,51.05
2022-11-05T09:53:46.885Z,54.27
2022-11-05T09:57:59.596Z,50.50
2022-11-05T10:00:06.420Z,51.28
2022-11-05T10:02:27.740Z,44.00
2022-11-05T10:04:33.288Z,53.03
2022-11-05T10:06:38.702Z,51.83
2022-11-05T10:08:45.055Z,50.90
2022-11-05T10:10:51.505Z,57.58
2022-11-05T10:12:58.774Z,51.42
2022-11-05T10:15:06.871Z,55.00
2022-11-05T10:17:15.920Z,55.25
2022-11-05T10:19:24.720Z,51.15
2022-11-05T10:21:51.522Z,54.03
2022-11-05T10:23:49.126Z,52.45
2022-11-05T10:25:58.371Z,51.40
2022-11-05T10:28:01.483Z,57.10
2022-11-05T10:30:04.075Z,50.42
2022-11-05T10:32:07.396Z,54.28
2022-11-05T10:34:13.762Z,56.22
2022-11-05T10:36:39.698Z,55.72
2022-11-05T10:38:41.591Z,50.63
2022-11-05T10:41:21.604Z,56.42
2022-11-05T10:43:30.731Z,51.03
2022-11-05T10:45:49.394Z,54.72
2022-11-05T10:48:23.958Z,54.00
2022-11-05T10:50:28.494Z,50.80
2022-11-05T10:52:51.952Z,64.22
2022-11-05T10:54:58.724Z,54.90
2022-11-05T10:57:00.576Z,54.15
2022-11-05T10:59:07.972Z,64.22
2022-11-05T11:01:13.380Z,58.58
2022-11-05T11:03:40.067Z,58.67
2022-11-05T11:05:41.968Z,69.40
2022-11-05T11:07:52.645Z,62.42
2022-11-05T11:09:54.646Z,73.20
2022-11-05T11:12:01.891Z,81.28
2022-11-05T11:14:20.977Z,72.30
2022-11-05T11:16:26.378Z,67.50
2022-11-05T11:18:35.882Z,66.13
2022-11-05T11:20:44.841Z,57.20
2022-11-05T11:23:02.751Z,61.28
2022-11-05T11:25:24.421Z,64.72
2022-11-05T11:27:33.249Z,112.50
2022-11-05T11:29:41.992Z,85.15
2022-11-05T11:31:47.213Z,66.20
2022-11-05T11:33:55.877Z,70.78
2022-11-05T11:35:58.379Z,65.18
2022-11-05T11:38:02.184Z,73.75
2022-11-05T11:40:13.397Z,63.13
2022-11-05T11:42:39.490Z,63.95
2022-11-05T11:44:45.635Z,70.65
2022-11-05T11:46:51.012Z,70.05
2022-11-05T11:48:53.314Z,66.53
2022-11-05T11:50:57.171Z,65.40
2022-11-05T11:53:21.170Z,63.38
2022-11-05T11:55:23.291Z,74.55
2022-11-05T11:57:28.334Z,71.18
2022-11-05T12:00:01.849Z,64.63
2022-11-05T12:02:05.614Z,72.40
2022-11-05T12:04:32.606Z,68.50
2022-11-05T12:06:59.712Z,70.18
2022-11-05T12:09:12.055Z,67.75
2022-11-05T12:11:25.643Z,74.00
2022-11-05T12:13:51.970Z,74.53
2022-11-05T12:16:08.860Z,73.38
2022-11-05T12:18:26.152Z,89.05
2022-11-05T12:20:58.512Z,102.00
2022-11-05T12:23:19.040Z,70.95
2022-11-05T12:26:12.103Z,80.07
2022-11-05T12:29:04.654Z,78.15
2022-11-05T12:31:29.552Z,69.75
2022-11-05T12:33:57.713Z,73.32
2022-11-05T12:36:27.573Z,75.63
2022-11-05T12:38:32.446Z,76.57
2022-11-05T12:41:16.414Z,86.80
2022-11-05T12:43:40.206Z,80.13
2022-11-05T12:45:54.073Z,77.00
2022-11-05T12:48:32.795Z,77.93
2022-11-05T12:50:53.139Z,79.50
2022-11-05T12:53:39.978Z,79.72
2022-11-05T12:55:48.523Z,80.25
2022-11-05T12:57:57.210Z,109.28
2022-11-05T13:00:11.604Z,90.60
2022-11-05T13:02:27.012Z,108.00
2022-11-05T13:04:45.546Z,83.38
2022-11-05T13:06:53.064Z,85.47
2022-11-05T13:09:17.574Z,84.53
2022-11-05T13:11:41.989Z,80.75
2022-11-05T13:14:11.641Z,78.38
2022-11-05T13:16:34.329Z,76.30
2022-11-05T13:18:49.281Z,71.77
2022-11-05T13:20:53.805Z,79.30
2022-11-05T13:23:02.039Z,75.32
2022-11-05T13:25:35.949Z,88.97
2022-11-05T13:27:44.990Z,86.43
2022-11-05T13:29:46.810Z,78.70
2022-11-05T13:32:02.970Z,84.07
2022-11-05T13:34:11.177Z,81.13
2022-11-05T13:36:46.378Z,86.80
2022-11-05T13:39:00.638Z,87.00
2022-11-05T13:41:27.670Z,82.38
2022-11-05T13:43:45.540Z,79.90
2022-11-05T13:46:05.597Z,84.95
2022-11-05T13:48:30.878Z,85.53
2022-11-05T13:50:41.506Z,81.20
2022-11-05T13:53:27.627Z,82.65
2022-11-05T13:55:48.626Z,91.72
2022-11-05T13:58:08.839Z,87.95
2022-11-05T14:00:29.560Z,87.28
2022-11-05T14:02:56.429Z,89.03
2022-11-05T14:05:01.738Z,84.95
2022-11-05T14:07:29.137Z,87.85
2022-11-05T14:09:35.145Z,87.32
2022-11-05T14:11:51.465Z,90.82
2022-11-05T14:13:58.748Z,86.32
2022-11-05T14:16:10.149Z,80.80
2022-11-05T14:18:24.306Z,91.03
2022-11-05T14:20:57.321Z,85.75
2022-11-05T14:23:17.802Z,90.30
2022-11-05T14:25:19.738Z,83.93
2022-11-05T14:27:21.504Z,84.53
2022-11-05T14:29:24.719Z,85.93
2022-11-05T14:34:19.406Z,82.40
2022-11-05T14:36:21.933Z,76.13
2022-11-05T14:38:27.846Z,84.95
2022-11-05T14:40:36.400Z,78.70
2022-11-05T14:42:38.870Z,78.13
2022-11-05T14:45:13.283Z,78.55
2022-11-05T14:47:21.770Z,78.90
2022-11-05T14:49:29.098Z,80.07
2022-11-05T14:51:33.553Z,80.22
2022-11-05T14:53:39.861Z,88.88
2022-11-05T14:55:43.777Z,83.68
2022-11-05T14:57:47.266Z,87.10
2022-11-05T14:59:57.835Z,85.93
2022-11-05T15:02:15.681Z,85.60
2022-11-05T15:04:17.776Z,78.88
2022-11-05T15:06:34.046Z,88.70
2022-11-05T15:08:52.303Z,87.93
2022-11-05T15:11:02.859Z,86.65
2022-11-05T15:13:06.566Z,86.38
2022-11-05T15:15:27.713Z,84.78
2022-11-05T15:17:33.910Z,80.07
2022-11-05T15:19:37.678Z,86.10
2022-11-05T15:21:41.417Z,74.93
2022-11-05T15:23:47.451Z,82.53
2022-11-05T15:26:04.678Z,75.63
2022-11-05T15:28:18.158Z,75.20
2022-11-05T15:30:22.830Z,80.95
2022-11-05T15:32:26.634Z,73.72
2022-11-05T15:34:32.097Z,78.82
2022-11-05T15:36:33.981Z,77.05
2022-11-05T15:38:36.130Z,75.50
2022-11-05T15:40:38.316Z,76.85
2022-11-05T15:42:40.197Z,74.97
2022-11-05T15:44:44.258Z,78.63
2022-11-05T15:46:46.471Z,70.53
2022-11-05T15:48:53.388Z,71.40
2022-11-05T15:50:55.489Z,70.20
2022-11-05T15:53:14.431Z,72.75
2022-11-05T15:55:24.524Z,65.95
2022-11-05T15:57:29.606Z,70.85
2022-11-05T15:59:31.899Z,69.95
2022-11-05T16:01:36.735Z,89.40
2022-11-05T16:03:39.642Z,76.20
2022-11-05T16:05:45.125Z,70.72
2022-11-05T16:07:48.388Z,67.88
2022-11-05T16:09:54.969Z,62.55
2022-11-05T16:12:18.366Z,67.80
2022-11-05T16:14:20.470Z,65.43
2022-11-05T16:16:33.910Z,67.77
2022-11-05T16:18:40.235Z,73.28
2022-11-05T16:21:10.889Z,67.32
2022-11-05T16:23:25.571Z,65.45
2022-11-05T16:25:29.648Z,69.47
2022-11-05T16:27:31.602Z,69.93
2022-11-05T16:29:46.335Z,70.18
2022-11-05T16:31:53.951Z,69.95
2022-11-05T16:33:57.066Z,70.57
2022-11-05T16:35:58.920Z,69.93
2022-11-05T16:38:02.083Z,68.57
2022-11-05T16:40:20.962Z,65.45
2022-11-05T16:42:22.749Z,73.32
2022-11-05T16:44:24.961Z,71.67
2022-11-05T16:46:30.168Z,69.90
2022-11-05T16:48:32.025Z,70.82
2022-11-05T16:50:34.657Z,72.70
2022-11-05T16:52:36.488Z,75.07
2022-11-05T16:54:38.937Z,72.90
2022-11-05T16:56:42.912Z,86.30
2022-11-05T16:58:47.256Z,81.25
2022-11-05T17:00:50.953Z,75.78
2022-11-05T17:02:53.637Z,70.95
2022-11-05T17:04:55.694Z,148.15
2022-11-05T17:06:57.647Z,78.28
2022-11-05T17:08:59.859Z,75.25
2022-11-05T17:11:01.985Z,69.03
2022-11-05T17:13:04.672Z,77.13
2022-11-05T17:17:22.259Z,76.80
2022-11-05T17:19:24.094Z,73.90
2022-11-05T17:21:26.305Z,74.78
2022-11-05T17:23:28.977Z,74.97
2022-11-05T17:25:31.570Z,79.35
2022-11-05T17:27:33.943Z,77.78
2022-11-05T17:29:35.824Z,73.55
2022-11-05T17:31:39.974Z,73.25
2022-11-05T17:33:42.220Z,73.50
2022-11-05T17:35:44.096Z,78.97
2022-11-05T17:37:45.955Z,73.30
2022-11-05T17:39:48.128Z,80.65
2022-11-05T17:41:50.359Z,73.00
2022-11-05T17:43:57.358Z,75.55
2022-11-05T17:46:04.339Z,74.50
2022-11-05T17:48:08.258Z,85.25
2022-11-05T17:50:12.063Z,109.00
2022-11-05T17:52:14.498Z,83.25
2022-11-05T17:56:32.189Z,80.10
2022-11-05T17:58:36.859Z,83.22
2022-11-05T18:00:40.425Z,88.53
2022-11-05T18:02:42.399Z,94.75
2022-11-05T18:04:44.641Z,91.20
2022-11-05T18:06:46.993Z,79.78
2022-11-05T18:08:49.740Z,91.10
2022-11-05T18:10:53.275Z,74.00
2022-11-05T18:12:55.346Z,68.65
2022-11-05T18:14:57.233Z,73.83
2022-11-05T18:17:00.374Z,75.55
2022-11-05T18:19:03.010Z,74.20
2022-11-05T18:21:04.991Z,72.35
2022-11-05T18:23:07.205Z,64.78
2022-11-05T18:25:10.838Z,67.75
2022-11-05T18:27:13.240Z,69.45
2022-11-05T18:29:15.547Z,65.32
2022-11-05T18:31:23.077Z,64.00
2022-11-05T18:33:25.022Z,73.28
2022-11-05T18:35:27.720Z,60.97
2022-11-05T18:37:29.656Z,63.58
2022-11-05T18:39:31.557Z,57.95
2022-11-05T18:41:33.772Z,56.30
2022-11-05T18:43:35.786Z,52.90
2022-11-05T18:45:37.659Z,46.90
2022-11-05T18:47:39.930Z,51.67
2022-11-05T18:49:42.131Z,47.97
2022-11-05T18:51:43.970Z,43.60
2022-11-05T18:53:46.223Z,43.15
2022-11-05T18:55:48.117Z,42.05
2022-11-05T18:57:50.019Z,41.22
2022-11-05T18:59:52.194Z,39.50
2022-11-05T19:01:54.379Z,69.88
2022-11-05T19:03:57.669Z,36.88
2022-11-05T19:06:03.217Z,38.35
2022-11-05T19:08:05.282Z,42.60
2022-11-05T19:10:07.960Z,37.55
2022-11-05T19:14:12.302Z,83.07
2022-11-05T19:16:23.785Z,39.93
2022-11-05T19:18:25.984Z,32.13
2022-11-05T19:20:28.191Z,30.92
2022-11-05T19:22:30.120Z,31.83
2022-11-05T19:24:32.377Z,61.58
2022-11-05T19:26:34.312Z,29.08
2022-11-05T19:28:36.627Z,30.58
2022-11-05T19:30:39.023Z,24.90
2022-11-05T19:32:41.062Z,25.85
2022-11-05T19:34:43.198Z,69.88
2022-11-05T19:36:45.627Z,32.28
2022-11-05T19:38:49.698Z,32.20
2022-11-05T19:40:52.403Z,23.45
2022-11-05T19:42:54.609Z,38.28
2022-11-05T19:44:56.997Z,29.50
2022-11-05T19:47:02.242Z,32.05
2022-11-05T19:49:04.695Z,48.08
2022-11-05T19:51:09.316Z,32.50
2022-11-05T19:53:11.286Z,30.20
2022-11-05T19:55:13.538Z,35.58
2022-11-05T19:57:15.377Z,37.47
2022-11-05T19:59:17.578Z,35.80
2022-11-05T20:01:21.595Z,38.25
2022-11-05T20:03:23.646Z,39.63
2022-11-05T20:05:25.553Z,39.28
2022-11-05T20:07:27.962Z,38.40
2022-11-05T20:09:29.963Z,39.05
2022-11-05T20:11:32.227Z,40.88
2022-11-05T20:13:34.760Z,36.85
2022-11-05T20:15:40.061Z,39.30
2022-11-05T20:17:41.914Z,34.72
2022-11-05T20:19:44.183Z,37.10
2022-11-05T20:21:46.349Z,38.25
2022-11-05T20:23:48.631Z,37.35
2022-11-05T20:25:53.719Z,36.63
2022-11-05T20:27:57.289Z,40.88
2022-11-05T20:29:59.255Z,36.78
2022-11-05T20:32:02.494Z,36.28
2022-11-05T20:34:04.703Z,37.03
2022-11-05T20:36:09.678Z,35.63
2022-11-05T20:38:12.028Z,35.50
2022-11-05T20:40:14.593Z,36.50
2022-11-05T20:42:16.663Z,37.55
2022-11-05T20:44:19.304Z,33.80
2022-11-05T20:46:22.796Z,35.28
2022-11-05T20:48:24.776Z,35.22
2022-11-05T20:50:27.060Z,39.85
2022-11-05T20:52:29.556Z,36.65
2022-11-05T20:54:31.628Z,33.60
2022-11-05T20:56:37.185Z,44.67
2022-11-05T20:58:40.388Z,37.97
2022-11-05T21:00:49.274Z,37.90
2022-11-05T21:02:51.635Z,70.93
2022-11-05T21:04:53.522Z,49.03
2022-11-05T21:06:55.390Z,38.22
2022-11-05T21:08:57.756Z,39.70
2022-11-05T21:11:00.137Z,40.75
2022-11-05T21:13:01.986Z,40.35
2022-11-05T21:15:04.782Z,40.45
2022-11-05T21:17:08.967Z,39.78
2022-11-05T21:19:10.862Z,46.60
2022-11-05T21:21:18.406Z,37.08
2022-11-05T21:23:20.934Z,40.22
2022-11-05T21:25:22.834Z,40.08
2022-11-05T21:27:25.105Z,32.85
2022-11-05T21:29:27.150Z,38.33
2022-11-05T21:31:29.120Z,42.00
2022-11-05T21:33:32.174Z,35.13
2022-11-05T21:35:34.663Z,39.83
2022-11-05T21:37:36.501Z,37.03
2022-11-05T21:39:39.210Z,45.92
2022-11-05T21:41:41.211Z,37.88
2022-11-05T21:43:43.255Z,37.55
2022-11-05T21:45:45.786Z,37.85
2022-11-05T21:47:47.702Z,41.80
2022-11-05T21:49:49.546Z,42.78
2022-11-05T21:52:10.974Z,38.28
2022-11-05T21:54:31.189Z,40.15
2022-11-05T21:56:51.757Z,43.95
2022-11-05T21:59:12.600Z,35.03
2022-11-05T22:01:14.594Z,38.78
2022-11-05T22:03:16.478Z,40.08
2022-11-05T22:05:18.718Z,40.80
2022-11-05T22:07:23.378Z,40.83
2022-11-05T22:09:26.052Z,38.75
2022-11-05T22:13:29.949Z,40.05
2022-11-05T22:15:31.886Z,39.17
2022-11-05T22:17:34.084Z,36.00
2022-11-05T22:19:36.618Z,35.10
2022-11-05T22:21:38.693Z,39.22
2022-11-05T22:23:40.948Z,36.85
2022-11-05T22:25:42.839Z,32.65
2022-11-05T22:27:44.662Z,53.55
2022-11-05T22:29:47.283Z,51.67
2022-11-05T22:31:49.302Z,34.70
2022-11-05T22:33:51.139Z,35.00
2022-11-05T22:35:53.339Z,37.80
2022-11-05T22:37:55.312Z,36.67
2022-11-05T22:39:57.125Z,41.95
2022-11-05T22:42:02.040Z,38.40
2022-11-05T22:44:07.614Z,40.17
2022-11-05T22:46:12.340Z,40.80
2022-11-05T22:48:15.210Z,38.97
2022-11-05T22:50:17.749Z,31.05
2022-11-05T22:52:19.974Z,39.55
2022-11-05T22:54:22.174Z,33.28
2022-11-05T22:56:26.154Z,32.45
2022-11-05T22:58:28.090Z,32.25
2022-11-05T23:00:37.579Z,33.80
2022-11-05T23:02:40.001Z,38.83
2022-11-05T23:04:42.037Z,29.15
2022-11-05T23:07:03.188Z,33.33
2022-11-05T23:09:30.314Z,34.72
2022-11-05T23:11:41.043Z,38.25
2022-11-05T23:13:43.504Z,34.08
2022-11-05T23:16:04.193Z,40.63
2022-11-05T23:18:24.682Z,33.92
2022-11-05T23:20:45.530Z,41.72
2022-11-05T23:23:06.058Z,34.75
2022-11-05T23:25:10.988Z,39.03
2022-11-05T23:27:13.212Z,32.78
2022-11-05T23:29:15.047Z,30.85
2022-11-05T23:31:35.752Z,31.90
2022-11-05T23:33:37.974Z,42.53
2022-11-05T23:35:58.381Z,32.83
2022-11-05T23:38:19.014Z,32.13
2022-11-05T23:40:26.859Z,30.63
2022-11-05T23:42:47.362Z,35.92
2022-11-05T23:45:13.121Z,26.38
2022-11-05T23:47:35.086Z,35.45
2022-11-05T23:49:36.922Z,39.17
2022-11-05T23:51:38.935Z,34.97
2022-11-05T23:53:41.575Z,34.75
2022-11-05T23:55:44.003Z,34.35
2022-11-05T23:57:45.902Z,35.10
2022-11-05T23:59:48.165Z,43.92
